createdAt,value
2024-03-03T00:00:46.868Z,100668.34
2024-03-03T00:03:14.940Z,100664.22
2024-03-03T00:05:42.263Z,100666.25
2024-03-03T00:08:09.652Z,100672.34
2024-03-03T00:10:36.880Z,100673.28
2024-03-03T00:13:04.766Z,100670.88
2024-03-03T00:15:32.035Z,100668.44
2024-03-03T00:17:59.551Z,100665.81
2024-03-03T00:20:27.698Z,100667.47
2024-03-03T00:22:54.914Z,100671.91
2024-03-03T00:25:22.115Z,100671.19
2024-03-03T00:27:49.444Z,100678.91
2024-03-03T00:30:16.741Z,100675.31
2024-03-03T00:32:48.847Z,100677.19
2024-03-03T00:35:16.226Z,100681.63
2024-03-03T00:37:43.602Z,100685.22
2024-03-03T00:40:11.958Z,100680.78
2024-03-03T00:42:39.350Z,100671.91
2024-03-03T00:45:07.867Z,100666.13
2024-03-03T00:47:35.662Z,100668.53
2024-03-03T00:50:03.172Z,100674.69
2024-03-03T00:52:31.108Z,100667.09
2024-03-03T00:54:58.610Z,100670.66
2024-03-03T00:57:27.099Z,100671.19
2024-03-03T00:59:54.333Z,100681.00
2024-03-03T01:02:21.665Z,100676.66
2024-03-03T01:04:51.541Z,100678.69
2024-03-03T01:07:19.047Z,100676.13
2024-03-03T01:09:46.997Z,100681.31
2024-03-03T01:12:14.318Z,100675.41
2024-03-03T01:14:41.766Z,100685.31
2024-03-03T01:17:08.983Z,100671.63
2024-03-03T01:19:37.898Z,100675.00
2024-03-03T01:22:05.566Z,100682.25
2024-03-03T01:24:33.089Z,100688.25
2024-03-03T01:27:02.135Z,100684.78
2024-03-03T01:29:29.520Z,100683.28
2024-03-03T01:31:57.200Z,100693.94
2024-03-03T01:34:24.687Z,100690.44
2024-03-03T01:36:53.659Z,100699.22
2024-03-03T01:39:20.933Z,100694.34
2024-03-03T01:41:49.010Z,100696.44
2024-03-03T01:44:16.690Z,100695.59
2024-03-03T01:46:44.130Z,100699.28
2024-03-03T01:49:15.379Z,100705.69
2024-03-03T01:51:43.444Z,100715.31
2024-03-03T01:54:10.873Z,100712.75
2024-03-03T01:56:38.564Z,100709.50
2024-03-03T01:59:07.119Z,100713.81
2024-03-03T02:01:35.238Z,100699.69
2024-03-03T02:04:02.770Z,100710.75
2024-03-03T02:06:34.909Z,100714.44
2024-03-03T02:09:03.157Z,100718.00
2024-03-03T02:11:31.010Z,100711.22
2024-03-03T02:13:59.996Z,100711.44
2024-03-03T02:16:27.780Z,100713.78
2024-03-03T02:18:56.551Z,100716.63
2024-03-03T02:21:27.384Z,100716.06
2024-03-03T02:23:54.571Z,100718.91
2024-03-03T02:26:23.400Z,100711.31
2024-03-03T02:28:52.806Z,100713.94
2024-03-03T02:31:20.484Z,100715.09
2024-03-03T02:33:48.043Z,100722.13
2024-03-03T02:36:15.692Z,100729.06
2024-03-03T02:38:51.377Z,100725.53
2024-03-03T02:41:19.112Z,100707.91
2024-03-03T02:43:46.365Z,100719.72
2024-03-03T02:46:14.982Z,100723.38
2024-03-03T02:48:42.676Z,100720.31
2024-03-03T02:51:10.340Z,100722.34
2024-03-03T02:53:38.506Z,100718.00
2024-03-03T02:56:08.747Z,100730.44
2024-03-03T02:58:36.245Z,100726.94
2024-03-03T03:01:04.037Z,100721.03
2024-03-03T03:03:32.578Z,100720.41
2024-03-03T03:05:59.866Z,100724.09
2024-03-03T03:08:27.589Z,100723.41
2024-03-03T03:10:55.674Z,100723.63
2024-03-03T03:13:22.889Z,100715.28
2024-03-03T03:15:50.400Z,100723.91
2024-03-03T03:18:18.661Z,100728.53
2024-03-03T03:20:46.373Z,100732.22
2024-03-03T03:23:13.647Z,100732.50
2024-03-03T03:25:41.018Z,100733.63
2024-03-03T03:28:08.293Z,100731.09
2024-03-03T03:30:35.645Z,100738.13
2024-03-03T03:33:03.780Z,100738.88
2024-03-03T03:35:31.001Z,100737.97
2024-03-03T03:37:58.154Z,100743.38
2024-03-03T03:40:26.049Z,100742.84
2024-03-03T03:42:53.324Z,100743.81
2024-03-03T03:45:20.924Z,100740.22
2024-03-03T03:47:48.135Z,100744.66
2024-03-03T03:50:15.675Z,100738.56
2024-03-03T03:52:43.175Z,100744.84
2024-03-03T03:55:10.579Z,100741.47
2024-03-03T03:57:39.311Z,100743.47
2024-03-03T04:00:07.324Z,100739.03
2024-03-03T04:02:40.178Z,100742.63
2024-03-03T04:05:07.689Z,100748.78
2024-03-03T04:07:35.081Z,100749.81
2024-03-03T04:10:02.884Z,100751.53
2024-03-03T04:12:30.315Z,100749.81
2024-03-03T04:14:57.578Z,100741.19
2024-03-03T04:17:24.792Z,100746.09
2024-03-03T04:19:52.113Z,100749.34
2024-03-03T04:22:20.043Z,100751.63
2024-03-03T04:24:47.356Z,100749.50
2024-03-03T04:27:14.530Z,100755.50
2024-03-03T04:29:41.810Z,100747.59
2024-03-03T04:32:09.413Z,100748.56
2024-03-03T04:34:41.200Z,100756.38
2024-03-03T04:37:09.181Z,100759.84
2024-03-03T04:39:36.671Z,100754.44
2024-03-03T04:42:05.062Z,100751.00
2024-03-03T04:44:32.707Z,100757.63
2024-03-03T04:47:00.849Z,100758.31
2024-03-03T04:49:29.515Z,100752.94
2024-03-03T04:51:56.872Z,100748.97
2024-03-03T04:54:24.066Z,100756.50
2024-03-03T04:56:51.356Z,100763.78
2024-03-03T04:59:20.261Z,100754.75
2024-03-03T05:01:47.443Z,100760.28
2024-03-03T05:04:15.114Z,100758.19
2024-03-03T05:06:49.991Z,100760.13
2024-03-03T05:09:17.183Z,100766.25
2024-03-03T05:11:45.383Z,100766.19
2024-03-03T05:14:12.733Z,100764.34
2024-03-03T05:16:39.998Z,100771.50
2024-03-03T05:19:10.298Z,100764.03
2024-03-03T05:21:37.958Z,100772.88
2024-03-03T05:24:05.801Z,100772.88
2024-03-03T05:26:33.067Z,100775.34
2024-03-03T05:29:00.337Z,100774.16
2024-03-03T05:31:32.855Z,100780.94
2024-03-03T05:33:59.997Z,100778.69
2024-03-03T05:36:27.485Z,100777.31
2024-03-03T05:38:54.672Z,100772.25
2024-03-03T05:41:27.094Z,100778.72
2024-03-03T05:43:54.616Z,100776.47
2024-03-03T05:46:22.222Z,100781.94
2024-03-03T05:48:50.744Z,100781.31
2024-03-03T05:51:18.474Z,100782.34
2024-03-03T05:53:46.711Z,100773.13
2024-03-03T05:56:17.644Z,100777.53
2024-03-03T05:58:46.040Z,100777.81
2024-03-03T06:01:13.396Z,100775.47
2024-03-03T06:03:41.971Z,100780.69
2024-03-03T06:06:11.298Z,100777.03
2024-03-03T06:08:46.601Z,100779.72
2024-03-03T06:11:17.013Z,100782.19
2024-03-03T06:13:45.111Z,100784.84
2024-03-03T06:16:12.631Z,100785.63
2024-03-03T06:18:39.912Z,100788.91
2024-03-03T06:21:08.379Z,100782.81
2024-03-03T06:23:37.388Z,100797.25
2024-03-03T06:26:05.677Z,100782.81
2024-03-03T06:28:32.961Z,100787.66
2024-03-03T06:31:00.779Z,100780.66
2024-03-03T06:33:28.840Z,100783.44
2024-03-03T06:35:56.156Z,100785.00
2024-03-03T06:38:23.846Z,100784.63
2024-03-03T06:40:51.286Z,100790.16
2024-03-03T06:43:19.102Z,100792.59
2024-03-03T06:45:46.430Z,100792.44
2024-03-03T06:48:13.872Z,100792.31
2024-03-03T06:50:41.733Z,100786.16
2024-03-03T06:53:09.231Z,100778.66
2024-03-03T06:55:36.638Z,100791.03
2024-03-03T06:58:03.939Z,100790.72
2024-03-03T07:00:31.482Z,100791.03
2024-03-03T07:03:14.351Z,100793.81
2024-03-03T07:05:43.409Z,100797.09
2024-03-03T07:08:10.649Z,100800.34
2024-03-03T07:10:38.019Z,100800.56
2024-03-03T07:13:05.650Z,100800.25
2024-03-03T07:15:32.861Z,100798.53
2024-03-03T07:18:01.297Z,100803.50
2024-03-03T07:20:28.532Z,100803.38
2024-03-03T07:22:56.669Z,100801.56
2024-03-03T07:25:23.955Z,100804.88
2024-03-03T07:27:51.325Z,100802.69
2024-03-03T07:30:20.959Z,100807.28
2024-03-03T07:32:49.614Z,100800.91
2024-03-03T07:35:16.872Z,100804.59
2024-03-03T07:37:44.149Z,100801.03
2024-03-03T07:40:11.593Z,100802.06
2024-03-03T07:42:39.132Z,100808.34
2024-03-03T07:45:07.044Z,100802.47
2024-03-03T07:47:34.484Z,100805.75
2024-03-03T07:50:01.815Z,100805.97
2024-03-03T07:52:29.328Z,100802.84
2024-03-03T07:54:56.576Z,100808.97
2024-03-03T07:57:24.835Z,100805.00
2024-03-03T07:59:52.104Z,100812.81
2024-03-03T08:02:19.782Z,100814.53
2024-03-03T08:04:46.966Z,100824.28
2024-03-03T08:07:14.283Z,100815.91
2024-03-03T08:09:42.577Z,100812.19
2024-03-03T08:12:10.084Z,100823.09
2024-03-03T08:14:37.249Z,100816.94
2024-03-03T08:17:04.678Z,100817.75
2024-03-03T08:19:31.881Z,100816.22
2024-03-03T08:21:59.153Z,100819.34
2024-03-03T08:24:26.484Z,100816.22
2024-03-03T08:26:53.767Z,100820.06
2024-03-03T08:29:21.374Z,100824.41
2024-03-03T08:31:48.643Z,100817.88
2024-03-03T08:34:16.493Z,100818.03
2024-03-03T08:36:44.588Z,100828.22
2024-03-03T08:39:12.714Z,100818.34
2024-03-03T08:41:44.483Z,100818.66
2024-03-03T08:44:12.290Z,100821.19
2024-03-03T08:46:39.634Z,100821.34
2024-03-03T08:49:07.038Z,100823.03
2024-03-03T08:51:39.033Z,100820.94
2024-03-03T08:54:06.461Z,100819.75
2024-03-03T08:56:33.978Z,100824.69
2024-03-03T08:59:01.252Z,100825.56
2024-03-03T09:01:28.590Z,100824.63
2024-03-03T09:03:55.895Z,100823.97
2024-03-03T09:06:24.606Z,100817.19
2024-03-03T09:08:51.895Z,100824.69
2024-03-03T09:11:19.197Z,100828.88
2024-03-03T09:13:47.054Z,100825.66
2024-03-03T09:16:14.611Z,100818.50
2024-03-03T09:18:42.066Z,100818.88
2024-03-03T09:21:10.051Z,100828.63
2024-03-03T09:23:37.488Z,100823.16
2024-03-03T09:26:05.032Z,100823.16
2024-03-03T09:28:32.455Z,100816.84
2024-03-03T09:30:59.805Z,100816.28
2024-03-03T09:33:27.327Z,100821.59
2024-03-03T09:35:55.054Z,100812.53
2024-03-03T09:38:22.270Z,100816.38
2024-03-03T09:40:49.501Z,100813.59
2024-03-03T09:43:19.894Z,100805.03
2024-03-03T09:45:49.788Z,100807.59
2024-03-03T09:48:17.122Z,100807.00
2024-03-03T09:50:44.626Z,100814.22
2024-03-03T09:53:12.879Z,100803.41
2024-03-03T09:55:40.381Z,100802.78
2024-03-03T09:58:11.334Z,100802.53
2024-03-03T10:00:39.160Z,100805.28
2024-03-03T10:03:08.263Z,100801.31
2024-03-03T10:05:38.731Z,100801.28
2024-03-03T10:08:06.178Z,100793.34
2024-03-03T10:10:39.444Z,100792.25
2024-03-03T10:13:07.716Z,100792.28
2024-03-03T10:15:37.008Z,100794.69
2024-03-03T10:18:04.539Z,100789.28
2024-03-03T10:20:33.684Z,100787.25
2024-03-03T10:23:01.029Z,100786.28
2024-03-03T10:25:28.380Z,100782.13
2024-03-03T10:28:11.701Z,100773.00
2024-03-03T10:30:39.039Z,100776.78
2024-03-03T10:33:08.296Z,100784.63
2024-03-03T10:35:35.684Z,100784.19
2024-03-03T10:38:05.637Z,100777.09
2024-03-03T10:40:33.270Z,100780.22
2024-03-03T10:43:00.984Z,100769.94
2024-03-03T10:45:28.520Z,100781.56
2024-03-03T10:47:55.802Z,100774.19
2024-03-03T10:50:24.250Z,100781.25
2024-03-03T10:52:53.132Z,100776.28
2024-03-03T10:55:20.554Z,100778.75
2024-03-03T10:57:48.207Z,100772.84
2024-03-03T11:00:17.648Z,100776.63
2024-03-03T11:02:46.372Z,100775.91
2024-03-03T11:05:14.523Z,100767.03
2024-03-03T11:07:43.762Z,100783.31
2024-03-03T11:10:11.471Z,100775.25
2024-03-03T11:12:47.286Z,100777.94
2024-03-03T11:15:19.840Z,100778.94
2024-03-03T11:17:59.560Z,100768.53
2024-03-03T11:20:33.181Z,100771.63
2024-03-03T11:23:16.328Z,100772.69
2024-03-03T11:26:08.437Z,100772.59
2024-03-03T11:28:36.093Z,100769.63
2024-03-03T11:31:04.193Z,100762.63
2024-03-03T11:33:33.409Z,100766.25
2024-03-03T11:36:01.014Z,100760.16
2024-03-03T11:38:44.343Z,100759.47
2024-03-03T11:41:12.322Z,100752.16
2024-03-03T11:43:43.703Z,100759.34
2024-03-03T11:46:11.521Z,100759.41
2024-03-03T11:48:43.540Z,100754.94
2024-03-03T11:51:27.481Z,100748.59
2024-03-03T11:54:08.942Z,100748.41
2024-03-03T11:56:51.745Z,100748.09
2024-03-03T11:59:19.224Z,100748.88
2024-03-03T12:01:50.515Z,100746.31
2024-03-03T12:04:19.142Z,100744.00
2024-03-03T12:06:47.554Z,100749.78
2024-03-03T12:09:16.909Z,100751.63
2024-03-03T12:11:44.902Z,100750.72
2024-03-03T12:14:12.244Z,100744.25
2024-03-03T12:16:39.450Z,100746.41
2024-03-03T12:19:06.803Z,100745.63
2024-03-03T12:21:35.040Z,100749.66
2024-03-03T12:24:06.096Z,100742.25
2024-03-03T12:26:33.936Z,100749.34
2024-03-03T12:29:01.293Z,100748.22
2024-03-03T12:31:34.912Z,100750.94
2024-03-03T12:34:02.643Z,100751.50
2024-03-03T12:36:29.903Z,100745.81
2024-03-03T12:38:57.754Z,100743.66
2024-03-03T12:41:25.884Z,100740.34
2024-03-03T12:43:59.653Z,100746.28
2024-03-03T12:46:30.459Z,100739.53
2024-03-03T12:48:57.830Z,100746.31
2024-03-03T12:51:25.529Z,100736.81
2024-03-03T12:53:54.500Z,100740.09
2024-03-03T12:56:23.664Z,100742.09
2024-03-03T12:58:51.467Z,100739.13
2024-03-03T13:01:19.407Z,100733.06
2024-03-03T13:03:56.751Z,100734.66
2024-03-03T13:06:24.376Z,100736.63
2024-03-03T13:08:54.477Z,100736.72
2024-03-03T13:11:22.562Z,100735.41
2024-03-03T13:13:51.408Z,100731.84
2024-03-03T13:16:18.943Z,100727.19
2024-03-03T13:18:46.311Z,100720.94
2024-03-03T13:21:17.395Z,100736.31
2024-03-03T13:23:44.847Z,100723.97
2024-03-03T13:26:13.129Z,100720.34
2024-03-03T13:28:43.622Z,100719.50
2024-03-03T13:31:10.792Z,100718.00
2024-03-03T13:33:38.788Z,100712.63
2024-03-03T13:36:14.005Z,100716.41
2024-03-03T13:38:41.576Z,100713.00
2024-03-03T13:41:09.133Z,100713.81
2024-03-03T13:43:36.584Z,100707.63
2024-03-03T13:46:04.109Z,100704.69
2024-03-03T13:48:31.509Z,100710.63
2024-03-03T13:51:02.317Z,100705.63
2024-03-03T13:53:31.153Z,100709.50
2024-03-03T13:55:58.352Z,100698.72
2024-03-03T13:58:25.713Z,100694.63
2024-03-03T14:00:53.227Z,100700.34
2024-03-03T14:03:20.695Z,100699.88
2024-03-03T14:05:47.802Z,100695.75
2024-03-03T14:08:15.347Z,100690.25
2024-03-03T14:10:42.794Z,100684.66
2024-03-03T14:13:10.227Z,100689.78
2024-03-03T14:15:38.351Z,100691.84
2024-03-03T14:18:06.341Z,100688.78
2024-03-03T14:20:34.062Z,100691.56
2024-03-03T14:23:01.388Z,100691.41
2024-03-03T14:25:28.702Z,100695.16
2024-03-03T14:28:04.627Z,100690.19
2024-03-03T14:30:39.405Z,100681.84
2024-03-03T14:33:07.334Z,100686.38
2024-03-03T14:35:34.458Z,100687.00
2024-03-03T14:38:02.058Z,100684.28
2024-03-03T14:40:29.509Z,100689.41
2024-03-03T14:42:57.913Z,100679.06
2024-03-03T14:45:37.492Z,100682.78
2024-03-03T14:48:05.109Z,100682.16
2024-03-03T14:50:32.372Z,100679.00
2024-03-03T14:53:00.678Z,100668.66
2024-03-03T14:55:27.906Z,100671.81
2024-03-03T14:57:55.055Z,100668.97
2024-03-03T15:00:24.735Z,100669.97
2024-03-03T15:03:10.733Z,100671.63
2024-03-03T15:05:38.553Z,100673.53
2024-03-03T15:08:06.406Z,100673.16
2024-03-03T15:10:37.237Z,100678.19
2024-03-03T15:13:06.916Z,100668.63
2024-03-03T15:15:34.813Z,100671.91
2024-03-03T15:18:02.018Z,100672.69
2024-03-03T15:20:30.166Z,100673.16
2024-03-03T15:22:58.027Z,100671.66
2024-03-03T15:25:25.335Z,100672.09
2024-03-03T15:27:52.871Z,100676.19
2024-03-03T15:30:20.636Z,100675.47
2024-03-03T15:32:48.093Z,100680.53
2024-03-03T15:35:15.259Z,100675.28
2024-03-03T15:37:42.397Z,100674.44
2024-03-03T15:40:10.134Z,100678.88
2024-03-03T15:42:38.000Z,100673.63
2024-03-03T15:45:05.596Z,100672.25
2024-03-03T15:47:32.763Z,100669.72
2024-03-03T15:50:00.260Z,100668.16
2024-03-03T15:52:27.664Z,100673.78
2024-03-03T15:54:54.920Z,100662.22
2024-03-03T15:57:22.069Z,100662.13
2024-03-03T15:59:49.515Z,100655.50
2024-03-03T16:02:18.616Z,100657.47
2024-03-03T16:04:45.959Z,100656.41
2024-03-03T16:07:13.281Z,100660.66
2024-03-03T16:09:40.644Z,100665.97
2024-03-03T16:12:09.203Z,100665.75
2024-03-03T16:14:37.060Z,100659.88
2024-03-03T16:17:04.990Z,100656.16
2024-03-03T16:19:32.421Z,100658.03
2024-03-03T16:21:59.789Z,100647.78
2024-03-03T16:24:26.976Z,100649.03
2024-03-03T16:26:54.425Z,100649.09
2024-03-03T16:29:21.656Z,100652.50
2024-03-03T16:31:49.238Z,100651.78
2024-03-03T16:34:17.326Z,100645.25
2024-03-03T16:36:44.589Z,100640.34
2024-03-03T16:39:12.034Z,100643.75
2024-03-03T16:41:39.310Z,100648.84
2024-03-03T16:44:06.470Z,100638.91
2024-03-03T16:46:33.843Z,100637.66
2024-03-03T16:49:02.517Z,100642.03
2024-03-03T16:51:29.787Z,100632.41
2024-03-03T16:53:57.228Z,100631.84
2024-03-03T16:56:24.700Z,100627.34
2024-03-03T16:58:53.084Z,100625.81
2024-03-03T17:01:20.950Z,100633.56
2024-03-03T17:03:48.265Z,100619.28
2024-03-03T17:06:16.562Z,100623.38
2024-03-03T17:08:44.022Z,100624.34
2024-03-03T17:11:11.388Z,100622.81
2024-03-03T17:13:38.766Z,100623.13
2024-03-03T17:16:06.575Z,100621.13
2024-03-03T17:18:34.586Z,100628.97
2024-03-03T17:21:02.628Z,100617.78
2024-03-03T17:23:48.462Z,100632.22
2024-03-03T17:26:15.840Z,100625.06
2024-03-03T17:28:43.138Z,100615.00
2024-03-03T17:31:10.628Z,100618.91
2024-03-03T17:33:38.947Z,100611.78
2024-03-03T17:36:06.677Z,100615.44
2024-03-03T17:38:34.459Z,100612.63
2024-03-03T17:41:20.369Z,100612.34
2024-03-03T17:43:48.678Z,100608.69
2024-03-03T17:46:15.957Z,100611.34
2024-03-03T17:48:43.187Z,100599.63
2024-03-03T17:51:10.564Z,100602.53
2024-03-03T17:53:37.773Z,100612.19
2024-03-03T17:56:06.264Z,100603.09
2024-03-03T17:58:33.608Z,100602.28
2024-03-03T18:01:01.807Z,100598.78
2024-03-03T18:03:48.606Z,100597.50
2024-03-03T18:06:15.869Z,100604.91
2024-03-03T18:08:43.209Z,100598.34
2024-03-03T18:11:10.479Z,100595.81
2024-03-03T18:13:37.746Z,100588.69
2024-03-03T18:16:08.234Z,100593.16
2024-03-03T18:18:35.547Z,100590.91
2024-03-03T18:21:03.015Z,100586.72
2024-03-03T18:23:33.006Z,100595.22
2024-03-03T18:26:01.066Z,100592.41
2024-03-03T18:28:30.263Z,100588.81
2024-03-03T18:30:58.108Z,100590.03
2024-03-03T18:33:25.593Z,100590.03
2024-03-03T18:35:53.561Z,100592.94
2024-03-03T18:38:20.729Z,100590.56
2024-03-03T18:40:48.934Z,100582.88
2024-03-03T18:43:21.582Z,100585.66
2024-03-03T18:45:48.989Z,100583.81
2024-03-03T18:48:16.242Z,100580.09
2024-03-03T18:51:02.758Z,100588.16
2024-03-03T18:53:30.498Z,100581.41
2024-03-03T18:56:03.007Z,100570.47
2024-03-03T18:58:30.435Z,100583.75
2024-03-03T19:00:57.906Z,100589.34
2024-03-03T19:03:43.610Z,100589.63
2024-03-03T19:06:11.928Z,100581.50
2024-03-03T19:08:40.148Z,100578.84
2024-03-03T19:11:07.383Z,100578.97
2024-03-03T19:13:35.533Z,100588.56
2024-03-03T19:16:02.783Z,100578.69
2024-03-03T19:18:31.794Z,100575.59
2024-03-03T19:20:59.221Z,100579.91
2024-03-03T19:23:26.400Z,100571.97
2024-03-03T19:26:12.178Z,100567.94
2024-03-03T19:28:40.731Z,100565.00
2024-03-03T19:31:08.246Z,100568.31
2024-03-03T19:33:35.665Z,100573.28
2024-03-03T19:36:02.912Z,100567.84
2024-03-03T19:38:30.329Z,100565.22
2024-03-03T19:40:58.356Z,100560.84
2024-03-03T19:43:26.611Z,100565.59
2024-03-03T19:45:53.979Z,100563.47
2024-03-03T19:48:21.439Z,100560.13
2024-03-03T19:50:50.890Z,100565.28
2024-03-03T19:53:19.430Z,100556.53
2024-03-03T19:55:46.822Z,100558.59
2024-03-03T19:58:14.300Z,100556.03
2024-03-03T20:00:41.599Z,100557.84
2024-03-03T20:03:09.519Z,100559.25
2024-03-03T20:05:37.066Z,100553.13
2024-03-03T20:08:06.088Z,100543.34
2024-03-03T20:10:34.191Z,100553.56
2024-03-03T20:13:05.437Z,100537.94
2024-03-03T20:15:33.133Z,100547.16
2024-03-03T20:18:00.781Z,100551.63
2024-03-03T20:20:28.062Z,100546.44
2024-03-03T20:22:55.439Z,100539.03
2024-03-03T20:25:23.907Z,100541.69
2024-03-03T20:27:51.393Z,100548.22
2024-03-03T20:30:19.743Z,100537.63
2024-03-03T20:32:48.520Z,100541.06
2024-03-03T20:35:15.843Z,100545.47
2024-03-03T20:37:43.643Z,100535.72
2024-03-03T20:40:14.951Z,100541.38
2024-03-03T20:42:42.908Z,100541.47
2024-03-03T20:45:10.549Z,100546.78
2024-03-03T20:47:39.340Z,100540.88
2024-03-03T20:50:07.902Z,100546.50
2024-03-03T20:52:37.748Z,100538.19
2024-03-03T20:55:09.462Z,100544.03
2024-03-03T20:57:37.034Z,100533.06
2024-03-03T21:00:07.912Z,100542.16
2024-03-03T21:02:37.169Z,100541.84
2024-03-03T21:05:08.193Z,100540.56
2024-03-03T21:07:35.789Z,100547.00
2024-03-03T21:10:03.467Z,100543.91
2024-03-03T21:12:32.358Z,100548.25
2024-03-03T21:15:00.397Z,100547.66
2024-03-03T21:17:27.796Z,100543.34
2024-03-03T21:19:55.483Z,100547.41
2024-03-03T21:22:23.731Z,100533.66
2024-03-03T21:24:51.285Z,100538.09
2024-03-03T21:27:18.651Z,100541.41
2024-03-03T21:29:45.877Z,100543.84
2024-03-03T21:32:13.546Z,100533.03
2024-03-03T21:34:40.878Z,100535.00
2024-03-03T21:37:08.784Z,100535.13
2024-03-03T21:39:36.369Z,100530.66
2024-03-03T21:42:03.810Z,100543.78
2024-03-03T21:44:32.629Z,100539.56
2024-03-03T21:46:59.882Z,100534.59
2024-03-03T21:49:27.125Z,100535.03
2024-03-03T21:51:54.535Z,100532.41
2024-03-03T21:54:21.920Z,100531.44
2024-03-03T21:56:49.372Z,100528.09
2024-03-03T21:59:16.591Z,100525.97
2024-03-03T22:01:52.416Z,100530.81
2024-03-03T22:04:27.372Z,100520.84
2024-03-03T22:06:54.643Z,100531.44
2024-03-03T22:09:21.964Z,100530.72
2024-03-03T22:11:51.868Z,100530.09
2024-03-03T22:14:20.631Z,100523.69
2024-03-03T22:16:48.061Z,100527.91
2024-03-03T22:19:15.776Z,100520.34
2024-03-03T22:21:43.052Z,100525.69
2024-03-03T22:24:10.305Z,100524.88
2024-03-03T22:26:42.887Z,100526.66
2024-03-03T22:29:11.442Z,100511.63
2024-03-03T22:31:38.731Z,100516.47
2024-03-03T22:34:06.406Z,100519.34
2024-03-03T22:36:33.740Z,100511.22
2024-03-03T22:39:01.083Z,100515.88
2024-03-03T22:41:28.290Z,100511.94
2024-03-03T22:43:55.504Z,100513.94
2024-03-03T22:46:23.318Z,100517.81
2024-03-03T22:48:50.849Z,100511.81
2024-03-03T22:51:18.108Z,100520.44
2024-03-03T22:53:45.958Z,100514.31
2024-03-03T22:56:13.185Z,100517.81
2024-03-03T22:58:40.626Z,100520.59
2024-03-03T23:01:08.266Z,100515.41
2024-03-03T23:03:35.612Z,100512.06
2024-03-03T23:06:04.671Z,100512.19
2024-03-03T23:08:31.971Z,100515.31
2024-03-03T23:10:59.385Z,100514.59
2024-03-03T23:13:26.660Z,100510.03
2024-03-03T23:15:55.291Z,100506.81
2024-03-03T23:18:22.835Z,100507.53
2024-03-03T23:20:50.194Z,100510.31
2024-03-03T23:23:18.367Z,100505.38
2024-03-03T23:25:45.774Z,100511.50
2024-03-03T23:28:13.260Z,100502.09
2024-03-03T23:30:40.408Z,100502.00
2024-03-03T23:33:07.690Z,100506.47
2024-03-03T23:35:35.001Z,100499.78
2024-03-03T23:38:05.279Z,100508.53
2024-03-03T23:40:32.526Z,100503.56
2024-03-03T23:43:00.825Z,100500.91
2024-03-03T23:45:28.641Z,100494.47
2024-03-03T23:47:56.033Z,100500.97
2024-03-03T23:50:23.406Z,100496.66
2024-03-03T23:52:50.714Z,100492.47
2024-03-03T23:55:18.223Z,100493.31
2024-03-03T23:57:46.330Z,100495.75
